Time;durP1;ratioP1;P1;durP2;ratioP2;P2;SDS_P1;SDS_P2;PMS_P1;PMS_P2;Temp;Humidity;BMP_temperature;BMP_pressure;BME280_temperature;BME280_humidity;BME280_pressure;Samples;Min_cycle;Max_cycle;Signal;HPM_P1;HPM_P2
2023/09/11 00:00:58;;;;;;;13.32;8.85;;;;;;;28.01;54.05;100831.31;5053314;28;20484;-40
2023/09/11 00:03:25;;;;;;;13.07;7.68;;;;;;;28.22;53.16;100828.13;5069877;28;20055;-40
2023/09/11 00:06:02;;;;;;;10.77;7.60;;;;;;;28.34;53.24;100821.03;5055005;28;20537;-39
2023/09/11 00:08:33;;;;;;;19.20;8.80;;;;;;;28.15;53.97;100828.25;5041150;28;20044;-40
2023/09/11 00:11:01;;;;;;;9.85;7.55;;;;;;;27.62;55.94;100820.53;5055365;28;20044;-39
2023/09/11 00:13:28;;;;;;;11.13;8.18;;;;;;;27.89;55.29;100828.22;5050732;28;20058;-40
2023/09/11 00:15:56;;;;;;;11.63;7.32;;;;;;;28.16;54.30;100820.53;5034601;28;20060;-40
2023/09/11 00:18:23;;;;;;;13.35;7.88;;;;;;;28.14;54.38;100820.97;5050498;28;20045;-39
2023/09/11 00:20:51;;;;;;;10.88;7.68;;;;;;;28.26;54.05;100825.22;5032631;28;20461;-40
2023/09/11 00:23:19;;;;;;;12.18;7.82;;;;;;;28.07;54.79;100823.91;5054384;28;20376;-40
2023/09/11 00:25:46;;;;;;;11.27;7.53;;;;;;;28.21;53.96;100825.72;5021030;28;20053;-41
2023/09/11 00:28:14;;;;;;;13.18;7.80;;;;;;;28.34;53.70;100815.38;5033057;28;20056;-40
2023/09/11 00:30:41;;;;;;;8.73;7.15;;;;;;;28.41;53.39;100821.72;5053471;28;20040;-40
2023/09/11 00:33:09;;;;;;;11.40;8.07;;;;;;;28.39;53.75;100818.50;5060692;28;20052;-40
2023/09/11 00:35:36;;;;;;;12.40;7.30;;;;;;;28.33;53.81;100816.59;5072779;28;20067;-40
2023/09/11 00:38:04;;;;;;;12.60;8.27;;;;;;;28.37;53.66;100814.50;5056070;28;20048;-40
2023/09/11 00:40:31;;;;;;;12.10;7.65;;;;;;;28.40;53.76;100819.31;5057683;28;20576;-40
2023/09/11 00:42:58;;;;;;;11.57;7.47;;;;;;;28.38;53.58;100816.09;5054594;28;20492;-40
2023/09/11 00:45:26;;;;;;;10.85;7.50;;;;;;;28.10;54.62;100813.75;5043929;28;20059;-40
2023/09/11 00:47:53;;;;;;;10.90;7.50;;;;;;;27.94;55.32;100814.44;5073958;28;20056;-39
2023/09/11 00:50:22;;;;;;;9.95;7.50;;;;;;;28.05;55.23;100815.06;5060113;28;20056;-40
2023/09/11 00:52:50;;;;;;;13.13;7.83;;;;;;;28.16;54.84;100807.16;5069673;28;20063;-39
2023/09/11 00:55:18;;;;;;;10.90;7.47;;;;;;;28.27;54.10;100810.63;5029689;28;20054;-39
2023/09/11 00:57:45;;;;;;;11.45;8.35;;;;;;;27.86;55.80;100814.94;5052614;28;20049;-39
2023/09/11 01:00:13;;;;;;;10.88;8.00;;;;;;;28.02;55.24;100810.25;5052458;28;20053;-41
2023/09/11 01:02:41;;;;;;;15.00;8.13;;;;;;;28.17;54.81;100805.97;5053711;28;20053;-40
2023/09/11 01:05:09;;;;;;;15.23;9.35;;;;;;;27.61;56.94;100807.63;5052697;28;20052;-40
2023/09/11 01:07:36;;;;;;;12.77;8.32;;;;;;;27.66;56.57;100807.16;5052930;28;20041;-40
2023/09/11 01:10:07;;;;;;;14.63;8.43;;;;;;;27.79;55.82;100804.53;5043946;28;20053;-44
2023/09/11 01:12:36;;;;;;;12.18;8.60;;;;;;;27.99;55.43;100804.63;5027280;28;20057;-41
2023/09/11 01:15:05;;;;;;;13.73;8.93;;;;;;;28.06;55.07;100811.00;5054340;28;20403;-40
2023/09/11 01:17:44;;;;;;;14.10;7.70;;;;;;;28.16;55.08;100807.16;5041319;28;20049;-41
2023/09/11 01:20:20;;;;;;;10.43;7.57;;;;;;;28.28;54.81;100803.72;5032888;28;20044;-40
2023/09/11 01:23:16;;;;;;;10.32;7.20;;;;;;;28.34;54.41;100804.84;5051900;28;20045;-44
2023/09/11 01:26:06;;;;;;;12.10;8.18;;;;;;;28.38;54.76;100794.25;5040159;28;20527;-39
2023/09/11 01:29:24;;;;;;;17.25;8.30;;;;;;;27.06;56.67;100797.88;5035248;28;20052;-39
2023/09/11 01:31:56;;;;;;;19.20;7.45;;;;;;;26.53;59.46;100796.44;5036367;28;20072;-40
2023/09/11 01:34:23;;;;;;;14.57;7.50;;;;;;;26.66;57.59;100803.16;5072971;28;20053;-40
2023/09/11 01:36:50;;;;;;;12.10;8.02;;;;;;;26.50;58.05;100804.94;5071957;28;20052;-40
2023/09/11 01:39:18;;;;;;;12.25;7.45;;;;;;;26.35;59.96;100812.75;5076173;28;20475;-39
2023/09/11 01:41:46;;;;;;;13.00;7.28;;;;;;;26.69;59.24;100817.69;5033971;28;20056;-40
2023/09/11 01:44:21;;;;;;;13.20;7.68;;;;;;;26.64;58.83;100819.72;5056249;28;20048;-40
2023/09/11 01:46:51;;;;;;;15.75;8.02;;;;;;;26.96;57.26;100819.38;5056688;28;20407;-40
2023/09/11 01:49:19;;;;;;;13.73;7.63;;;;;;;26.56;56.95;100821.03;5034956;28;20064;-39
2023/09/11 01:51:47;;;;;;;15.18;7.68;;;;;;;26.39;58.29;100821.19;5028471;28;20048;-40
2023/09/11 01:54:15;;;;;;;10.50;7.07;;;;;;;26.94;57.23;100812.53;5015022;28;20498;-40
2023/09/11 01:56:43;;;;;;;11.68;7.28;;;;;;;26.99;55.26;100814.94;5042643;28;20535;-41
2023/09/11 01:59:14;;;;;;;11.27;7.25;;;;;;;27.39;55.50;100820.47;5054074;28;20056;-40
2023/09/11 02:01:43;;;;;;;16.15;8.02;;;;;;;26.80;55.79;100815.56;5051497;28;20041;-39
2023/09/11 02:04:10;;;;;;;13.70;7.23;;;;;;;27.02;56.30;100809.22;5048376;28;20064;-41
2023/09/11 02:06:38;;;;;;;10.82;6.57;;;;;;;27.04;56.30;100822.94;5051606;28;20049;-40
2023/09/11 02:09:05;;;;;;;10.40;7.40;;;;;;;27.50;54.28;100809.00;5052030;28;20601;-40
2023/09/11 02:11:33;;;;;;;12.50;7.13;;;;;;;27.31;54.54;100812.50;5059785;28;20045;-40
2023/09/11 02:14:00;;;;;;;10.30;6.95;;;;;;;27.72;53.42;100813.13;5069837;28;20056;-40
2023/09/11 02:16:29;;;;;;;12.82;7.20;;;;;;;27.95;52.50;100810.34;5050870;28;20052;-40
2023/09/11 02:18:56;;;;;;;17.40;7.20;;;;;;;28.02;52.38;100809.47;5050755;28;20111;-40
2023/09/11 02:21:24;;;;;;;13.55;6.63;;;;;;;27.97;52.31;100813.56;5052734;28;20467;-40
2023/09/11 02:23:51;;;;;;;14.82;7.28;;;;;;;28.01;51.88;100811.47;5050236;28;20443;-41
2023/09/11 02:26:19;;;;;;;15.77;7.93;;;;;;;27.94;51.71;100810.78;5046158;28;20048;-41
2023/09/11 02:28:47;;;;;;;11.20;7.20;;;;;;;27.85;52.31;100808.47;5050618;28;20053;-39
2023/09/11 02:31:14;;;;;;;12.10;6.93;;;;;;;27.76;52.56;100802.53;5052516;28;20049;-39
2023/09/11 02:33:41;;;;;;;11.93;7.03;;;;;;;27.01;53.78;100806.78;5068448;28;20052;-39
2023/09/11 02:36:09;;;;;;;13.90;7.00;;;;;;;27.09;54.44;100814.00;5062860;28;20052;-39
2023/09/11 02:38:36;;;;;;;12.15;6.72;;;;;;;27.66;52.91;100801.50;5042105;28;20442;-41
2023/09/11 02:41:04;;;;;;;10.88;7.00;;;;;;;27.66;52.75;100807.16;5039340;28;20045;-40
2023/09/11 02:43:36;;;;;;;12.07;6.88;;;;;;;27.56;53.16;100807.31;5031862;28;20056;-41
2023/09/11 02:46:04;;;;;;;13.55;7.07;;;;;;;27.65;52.45;100807.59;5050140;28;20055;-40
2023/09/11 02:48:31;;;;;;;12.68;7.53;;;;;;;27.91;51.61;100809.63;5029461;28;20045;-40
2023/09/11 02:51:02;;;;;;;14.02;7.20;;;;;;;28.00;51.73;100807.03;5051188;28;20048;-43
2023/09/11 02:53:30;;;;;;;12.77;7.10;;;;;;;27.85;52.01;100805.63;5071500;28;20067;-39
2023/09/11 02:55:57;;;;;;;14.60;7.50;;;;;;;27.59;51.73;100810.09;5069224;28;20059;-40
2023/09/11 02:58:25;;;;;;;12.98;6.88;;;;;;;27.59;52.19;100797.97;5057206;28;20064;-40
2023/09/11 03:00:52;;;;;;;8.80;6.75;;;;;;;27.38;52.00;100810.38;5051860;28;20068;-41
2023/09/11 03:03:20;;;;;;;10.80;6.93;;;;;;;27.31;53.53;100806.84;5051099;28;20057;-40
2023/09/11 03:05:58;;;;;;;17.02;7.70;;;;;;;26.84;53.88;100802.16;5067239;28;20049;-40
2023/09/11 03:08:26;;;;;;;12.77;7.50;;;;;;;26.28;55.87;100798.69;5046611;28;20049;-43
2023/09/11 03:11:04;;;;;;;17.95;8.43;;;;;;;26.14;56.89;100796.00;5020049;28;20431;-39
2023/09/11 03:13:33;;;;;;;12.52;7.72;;;;;;;26.69;55.20;100795.91;5049573;28;20053;-40
2023/09/11 03:16:09;;;;;;;13.35;8.02;;;;;;;26.28;55.23;100789.41;5033980;28;20064;-39
2023/09/11 03:18:37;;;;;;;12.90;7.30;;;;;;;27.08;53.92;100781.25;5050723;28;20045;-42
2023/09/11 03:21:07;;;;;;;13.10;8.00;;;;;;;26.37;55.35;100779.25;5050293;28;20049;-40
2023/09/11 03:23:35;;;;;;;13.10;7.60;;;;;;;26.04;56.49;100770.69;5030480;28;20064;-40
2023/09/11 03:26:02;;;;;;;13.77;8.13;;;;;;;26.11;57.16;100762.97;5047819;28;20044;-40
2023/09/11 03:28:30;;;;;;;13.60;7.32;;;;;;;27.04;53.82;100761.50;5048127;28;20580;-41
2023/09/11 03:31:02;;;;;;;12.68;7.13;;;;;;;27.52;52.47;100759.25;5030608;28;20049;-40
2023/09/11 03:33:30;;;;;;;18.08;7.18;;;;;;;27.75;51.22;100761.31;5051742;28;20049;-40
2023/09/11 03:35:59;;;;;;;11.20;6.70;;;;;;;27.73;51.34;100763.78;5047716;28;20061;-40
2023/09/11 03:38:26;;;;;;;10.63;7.13;;;;;;;27.21;52.38;100766.16;5039873;28;20049;-40
2023/09/11 03:40:55;;;;;;;12.73;7.28;;;;;;;26.78;53.17;100758.66;5058344;28;20060;-40
2023/09/11 03:43:23;;;;;;;14.52;7.10;;;;;;;27.21;52.72;100759.69;5075239;28;20061;-40
2023/09/11 03:45:50;;;;;;;18.45;7.68;;;;;;;26.69;52.49;100753.50;5038636;28;20050;-40
2023/09/11 03:48:19;;;;;;;15.20;7.15;;;;;;;26.91;53.06;100743.53;5046082;28;20564;-40
2023/09/11 03:50:46;;;;;;;10.40;6.63;;;;;;;26.80;53.32;100751.31;5047005;28;20543;-40
2023/09/11 03:53:14;;;;;;;14.25;6.82;;;;;;;26.51;53.26;100742.38;5069430;28;20045;-40
2023/09/11 03:55:41;;;;;;;12.18;6.75;;;;;;;26.33;54.19;100744.56;5050964;28;20049;-40
2023/09/11 03:58:10;;;;;;;11.52;6.25;;;;;;;26.57;53.69;100743.50;5055368;28;20598;-40
2023/09/11 04:00:38;;;;;;;12.27;6.33;;;;;;;26.81;52.81;100738.81;5055077;28;20180;-39
2023/09/11 04:03:06;;;;;;;17.65;7.07;;;;;;;26.62;53.70;100739.41;5047059;28;20437;-40
2023/09/11 04:05:33;;;;;;;15.77;6.75;;;;;;;27.22;51.72;100736.63;5055661;28;20056;-40
2023/09/11 04:08:01;;;;;;;10.00;5.82;;;;;;;27.59;50.77;100728.00;5043161;28;20056;-40
2023/09/11 04:10:29;;;;;;;14.30;6.72;;;;;;;27.81;49.92;100739.75;5050510;28;20045;-39
2023/09/11 04:12:57;;;;;;;11.63;6.40;;;;;;;27.92;49.33;100734.75;5053130;28;20061;-39
2023/09/11 04:15:24;;;;;;;11.77;6.13;;;;;;;27.51;49.65;100735.00;5042033;28;20499;-41
2023/09/11 04:17:54;;;;;;;14.63;6.43;;;;;;;26.37;52.69;100722.75;5053568;28;20045;-39
2023/09/11 04:20:23;;;;;;;12.20;6.63;;;;;;;26.62;52.04;100728.91;5033373;28;20065;-39
2023/09/11 04:22:51;;;;;;;11.97;6.40;;;;;;;26.80;52.52;100725.09;5056021;28;20053;-39
2023/09/11 04:25:19;;;;;;;14.15;6.07;;;;;;;26.94;51.40;100722.88;5035946;28;20053;-39
2023/09/11 04:27:46;;;;;;;11.30;6.10;;;;;;;27.12;51.04;100726.28;5036481;28;20083;-39
2023/09/11 04:30:14;;;;;;;8.90;5.65;;;;;;;27.39;50.76;100715.78;5058714;28;20052;-39
2023/09/11 04:32:42;;;;;;;13.18;6.53;;;;;;;27.41;48.74;100715.34;5066016;28;20045;-40
2023/09/11 04:35:09;;;;;;;10.13;5.95;;;;;;;26.60;50.91;100716.44;5039383;28;20053;-40
2023/09/11 04:37:37;;;;;;;9.00;6.50;;;;;;;26.49;52.64;100721.41;5054033;28;20049;-40
2023/09/11 04:40:07;;;;;;;12.75;6.22;;;;;;;26.24;51.50;100720.88;5037290;28;20049;-39
2023/09/11 04:42:36;;;;;;;9.93;5.80;;;;;;;26.74;52.08;100721.13;5052453;28;20044;-39
2023/09/11 04:45:04;;;;;;;9.98;5.40;;;;;;;26.79;50.83;100720.66;5047587;28;20531;-40
2023/09/11 04:47:32;;;;;;;14.63;6.20;;;;;;;26.61;51.83;100727.31;5053275;28;20061;-40
2023/09/11 04:50:00;;;;;;;10.93;5.60;;;;;;;26.92;50.55;100710.41;5053384;28;20064;-39
2023/09/11 04:52:28;;;;;;;12.60;5.25;;;;;;;26.75;51.39;100720.72;5063061;28;20044;-40
2023/09/11 04:54:55;;;;;;;10.65;5.47;;;;;;;26.80;51.12;100717.41;5038435;28;20044;-39
2023/09/11 04:57:24;;;;;;;10.90;5.20;;;;;;;26.77;50.85;100721.09;5042633;28;20483;-39
2023/09/11 04:59:51;;;;;;;11.55;5.53;;;;;;;26.62;50.94;100722.47;5061121;28;20060;-40
2023/09/11 05:02:18;;;;;;;15.18;5.53;;;;;;;26.46;51.39;100717.41;5067555;28;20052;-40
2023/09/11 05:04:47;;;;;;;10.50;5.78;;;;;;;26.31;51.35;100718.75;5031215;28;20087;-39
2023/09/11 05:07:14;;;;;;;13.70;5.88;;;;;;;26.21;52.42;100714.03;5059877;28;20045;-42
2023/09/11 05:09:42;;;;;;;11.57;5.88;;;;;;;26.74;50.97;100721.94;5044108;28;20056;-40
2023/09/11 05:12:09;;;;;;;13.38;6.40;;;;;;;26.65;51.13;100721.63;5063003;28;20052;-40
2023/09/11 05:14:36;;;;;;;11.57;5.68;;;;;;;26.71;50.58;100719.16;5042596;28;20049;-39
2023/09/11 05:17:04;;;;;;;10.95;5.93;;;;;;;26.79;50.57;100721.47;5032215;28;20404;-39
2023/09/11 05:19:31;;;;;;;12.82;5.78;;;;;;;26.85;50.29;100727.47;5023885;28;20068;-40
2023/09/11 05:21:59;;;;;;;10.48;6.07;;;;;;;27.25;49.06;100718.78;5052339;28;20057;-40
2023/09/11 05:24:26;;;;;;;13.32;5.60;;;;;;;27.49;48.30;100729.00;5033261;28;20033;-40
2023/09/11 05:26:53;;;;;;;11.27;5.75;;;;;;;27.47;48.28;100728.63;5061068;28;20440;-39
2023/09/11 05:29:21;;;;;;;11.77;6.30;;;;;;;27.44;48.91;100720.19;5040979;28;20045;-39
2023/09/11 05:31:48;;;;;;;11.70;6.07;;;;;;;27.60;48.13;100728.78;5032121;28;20056;-40
2023/09/11 05:34:16;;;;;;;14.18;6.32;;;;;;;27.53;48.03;100731.75;5073521;28;20048;-40
2023/09/11 05:36:43;;;;;;;15.65;6.32;;;;;;;27.44;48.23;100729.44;5047675;28;20507;-40
2023/09/11 05:39:10;;;;;;;11.80;6.00;;;;;;;27.06;49.31;100724.34;5033623;28;20414;-40
2023/09/11 05:41:37;;;;;;;17.75;6.72;;;;;;;27.17;48.82;100727.81;5052608;28;20068;-41
2023/09/11 05:44:05;;;;;;;15.77;6.78;;;;;;;27.28;48.87;100725.63;5015551;28;20064;-40
2023/09/11 05:46:32;;;;;;;17.27;6.30;;;;;;;26.71;50.83;100736.91;5039372;28;20055;-40
2023/09/11 05:49:00;;;;;;;14.30;6.20;;;;;;;26.80;50.41;100733.59;5046435;28;20045;-40
2023/09/11 05:51:27;;;;;;;15.15;6.40;;;;;;;26.84;49.91;100728.66;5059406;28;20158;-39
2023/09/11 05:53:55;;;;;;;14.68;6.10;;;;;;;26.80;50.53;100734.38;5072357;28;20044;-39
2023/09/11 05:56:22;;;;;;;13.68;6.47;;;;;;;26.97;49.86;100726.91;5065816;28;20060;-39
2023/09/11 05:58:49;;;;;;;11.93;6.32;;;;;;;27.30;48.74;100729.66;5055973;28;20053;-39
2023/09/11 06:01:17;;;;;;;15.50;6.75;;;;;;;27.43;48.41;100729.88;5052322;28;20052;-40
2023/09/11 06:03:45;;;;;;;12.63;6.05;;;;;;;27.58;48.31;100732.06;5051011;28;20064;-40
2023/09/11 06:06:12;;;;;;;13.80;6.47;;;;;;;27.57;48.32;100741.78;5047150;28;20273;-40
2023/09/11 06:08:40;;;;;;;13.07;5.50;;;;;;;27.82;48.29;100738.56;5044112;28;20068;-41
2023/09/11 06:11:08;;;;;;;15.00;5.95;;;;;;;27.83;47.82;100739.38;5059154;28;20060;-42
2023/09/11 06:13:35;;;;;;;18.35;6.30;;;;;;;27.83;48.24;100742.19;5038518;28;20702;-40
2023/09/11 06:16:03;;;;;;;10.35;5.68;;;;;;;27.84;48.16;100741.75;5046395;28;20049;-41
2023/09/11 06:18:31;;;;;;;13.50;6.20;;;;;;;27.84;48.60;100744.59;5049467;28;20045;-40
2023/09/11 06:21:00;;;;;;;17.88;6.50;;;;;;;27.11;49.20;100749.31;5048728;28;20055;-41
2023/09/11 06:23:27;;;;;;;26.17;6.95;;;;;;;25.14;54.15;100756.78;5042206;28;20056;-40
2023/09/11 06:25:55;;;;;;;18.10;6.72;;;;;;;24.61;56.49;100765.41;5043007;28;20048;-41
2023/09/11 06:28:22;;;;;;;19.98;6.72;;;;;;;24.43;57.57;100767.47;5045841;28;20061;-41
2023/09/11 06:30:49;;;;;;;20.40;6.72;;;;;;;24.02;59.16;100761.50;5043257;28;20045;-41
2023/09/11 06:33:17;;;;;;;16.33;7.25;;;;;;;24.33;58.62;100757.03;5046570;28;20707;-40
2023/09/11 06:35:44;;;;;;;24.67;7.10;;;;;;;24.96;58.12;100756.06;5045980;28;20689;-42
2023/09/11 06:38:12;;;;;;;15.25;6.88;;;;;;;26.22;53.94;100748.75;5046558;28;20060;-41
2023/09/11 06:40:39;;;;;;;13.55;6.22;;;;;;;27.06;51.38;100752.63;5046825;28;20036;-41
2023/09/11 06:43:07;;;;;;;15.00;6.43;;;;;;;27.42;53.74;100750.91;5054685;28;20192;-41
2023/09/11 06:45:35;;;;;;;19.65;7.30;;;;;;;26.24;51.82;100755.56;5042799;28;20053;-42
2023/09/11 06:48:03;;;;;;;16.73;6.75;;;;;;;24.92;55.45;100758.06;5042971;28;20057;-41
2023/09/11 06:50:30;;;;;;;35.13;13.32;;;;;;;23.86;59.59;100763.09;5043494;28;20034;-41
2023/09/11 06:52:58;;;;;;;19.05;8.02;;;;;;;23.86;60.05;100760.25;5043614;28;20056;-41
2023/09/11 06:55:25;;;;;;;17.70;6.85;;;;;;;23.98;59.79;100765.50;5044538;28;20072;-40
2023/09/11 06:57:58;;;;;;;15.80;6.93;;;;;;;23.92;59.82;100769.94;5045139;28;20053;-40
2023/09/11 07:00:25;;;;;;;16.88;7.22;;;;;;;23.95;59.72;100757.84;5042971;28;20057;-41
2023/09/11 07:02:54;;;;;;;16.00;7.60;;;;;;;23.74;60.38;100774.75;5046725;28;20060;-41
2023/09/11 07:05:22;;;;;;;17.65;7.65;;;;;;;23.54;61.37;100762.28;5054929;28;20049;-41
2023/09/11 07:07:50;;;;;;;35.97;8.68;;;;;;;23.74;60.77;100761.47;5045222;28;20052;-40
2023/09/11 07:10:20;;;;;;;25.15;8.93;;;;;;;23.84;60.44;100769.13;5043564;28;20045;-40
2023/09/11 07:13:04;;;;;;;21.05;7.72;;;;;;;23.63;60.73;100771.91;5042750;28;20061;-40
2023/09/11 07:15:32;;;;;;;19.05;7.05;;;;;;;23.82;60.25;100767.91;5049659;28;20041;-40
2023/09/11 07:18:00;;;;;;;20.58;7.22;;;;;;;23.85;59.84;100772.75;5047239;28;20041;-41
2023/09/11 07:20:27;;;;;;;20.42;7.70;;;;;;;24.05;59.74;100777.59;5055232;28;20140;-40
2023/09/11 07:22:55;;;;;;;14.52;6.65;;;;;;;24.11;59.19;100766.72;5036350;28;20059;-40
2023/09/11 07:25:23;;;;;;;15.40;6.63;;;;;;;23.90;59.37;100770.31;5047866;28;20050;-41
2023/09/11 07:27:54;;;;;;;14.25;6.85;;;;;;;23.95;59.29;100761.47;5044060;28;20429;-40
2023/09/11 07:30:21;;;;;;;16.95;7.32;;;;;;;23.99;59.58;100765.13;5056327;28;20565;-40
2023/09/11 07:32:51;;;;;;;21.30;7.18;;;;;;;24.08;58.92;100759.06;5055816;28;20064;-41
2023/09/11 07:35:19;;;;;;;15.85;6.05;;;;;;;23.83;59.05;100773.16;5048536;28;20045;-41
2023/09/11 07:37:48;;;;;;;12.32;5.68;;;;;;;23.85;59.39;100770.72;5050993;28;20063;-40
2023/09/11 07:40:15;;;;;;;21.93;7.33;;;;;;;23.94;59.17;100767.50;5049149;28;20040;-50
2023/09/11 07:42:43;;;;;;;17.40;6.95;;;;;;;24.01;58.88;100759.06;5058791;28;20037;-41
2023/09/11 07:45:10;;;;;;;17.10;6.85;;;;;;;24.15;58.52;100759.88;5034680;28;20057;-39
2023/09/11 07:47:37;;;;;;;17.17;6.53;;;;;;;24.45;57.78;100765.88;5057914;28;20053;-40
2023/09/11 07:50:05;;;;;;;21.40;7.03;;;;;;;24.31;58.67;100763.06;5057286;28;20063;-40
2023/09/11 07:52:35;;;;;;;18.38;6.05;;;;;;;24.28;57.52;100783.59;5048224;28;20055;-41
2023/09/11 07:55:04;;;;;;;34.35;7.05;;;;;;;24.28;57.01;100775.16;5057763;28;20048;-41
2023/09/11 07:57:31;;;;;;;28.08;7.05;;;;;;;24.37;56.96;100781.16;5052730;28;20052;-39
2023/09/11 08:00:04;;;;;;;62.50;8.95;;;;;;;24.38;57.29;100784.78;5029634;28;20045;-41
2023/09/11 08:02:33;;;;;;;34.35;8.05;;;;;;;24.34;57.98;100792.41;5044548;28;20056;-41
2023/09/11 08:05:00;;;;;;;39.28;8.50;;;;;;;24.50;57.26;100790.78;5049382;28;20491;-40
2023/09/11 08:07:28;;;;;;;20.20;6.55;;;;;;;24.68;56.86;100779.47;5046606;28;20522;-39
2023/09/11 08:09:58;;;;;;;21.90;7.47;;;;;;;24.79;56.94;100787.94;5048492;28;20057;-40
2023/09/11 08:12:25;;;;;;;19.83;7.55;;;;;;;24.85;56.97;100777.81;5056829;28;20049;-41
2023/09/11 08:14:53;;;;;;;22.05;7.45;;;;;;;24.79;57.70;100779.47;5056312;28;20550;-40
2023/09/11 08:17:20;;;;;;;25.95;7.85;;;;;;;24.81;57.25;100779.88;5054292;28;20052;-40
2023/09/11 08:19:47;;;;;;;19.42;7.75;;;;;;;25.16;56.50;100776.88;5053337;28;20045;-39
2023/09/11 08:22:15;;;;;;;22.27;6.93;;;;;;;25.23;56.45;100780.47;5053081;28;20079;-39
2023/09/11 08:24:42;;;;;;;29.48;7.72;;;;;;;25.27;55.82;100784.09;5051405;28;20052;-39
2023/09/11 08:27:09;;;;;;;20.63;7.82;;;;;;;25.11;56.30;100797.03;5044908;28;20068;-41
2023/09/11 08:29:37;;;;;;;18.55;7.43;;;;;;;25.22;56.26;100787.34;5023146;28;20170;-39
2023/09/11 08:32:04;;;;;;;19.92;6.55;;;;;;;24.97;56.42;100800.72;5051705;28;20048;-40
2023/09/11 08:34:32;;;;;;;19.50;6.78;;;;;;;24.69;56.91;100797.19;5053239;28;20053;-40
2023/09/11 08:36:59;;;;;;;21.02;8.27;;;;;;;24.90;56.89;100791.50;5058120;28;20049;-39
2023/09/11 08:39:27;;;;;;;17.73;7.20;;;;;;;24.72;56.82;100799.22;5051853;28;20823;-39
2023/09/11 08:41:57;;;;;;;22.10;6.68;;;;;;;25.03;55.73;100795.47;5051421;28;20053;-40
2023/09/11 08:44:26;;;;;;;13.90;6.03;;;;;;;25.49;54.71;100777.13;5045989;28;20072;-40
2023/09/11 08:46:56;;;;;;;23.95;6.93;;;;;;;24.89;55.63;100789.91;5052375;28;20057;-39
2023/09/11 08:49:25;;;;;;;26.55;6.78;;;;;;;24.80;55.95;100781.06;5051686;28;20573;-39
2023/09/11 08:51:53;;;;;;;16.43;6.37;;;;;;;24.63;56.09;100791.16;5055905;28;20041;-39
2023/09/11 08:54:24;;;;;;;20.08;6.60;;;;;;;24.83;56.27;100795.16;5048326;28;20045;-39
2023/09/11 08:56:53;;;;;;;22.63;7.05;;;;;;;25.23;54.97;100788.13;5050039;28;20056;-38
2023/09/11 08:59:22;;;;;;;19.95;6.95;;;;;;;25.83;53.60;100794.22;5051859;28;20052;-39
2023/09/11 09:01:50;;;;;;;15.73;6.63;;;;;;;25.78;53.32;100794.66;5033339;28;20053;-39
2023/09/11 09:04:18;;;;;;;19.98;7.13;;;;;;;25.59;53.83;100800.84;5019661;28;20040;-39
2023/09/11 09:06:47;;;;;;;17.38;7.30;;;;;;;25.39;54.57;100797.75;5049916;28;20045;-38
2023/09/11 09:09:14;;;;;;;25.08;7.72;;;;;;;25.20;54.74;100801.03;5038468;28;20060;-38
2023/09/11 09:11:47;;;;;;;29.45;7.90;;;;;;;25.01;55.45;100807.16;5042057;28;20056;-39
2023/09/11 09:14:18;;;;;;;32.70;8.52;;;;;;;25.15;55.10;100807.09;5048473;28;20048;-39
2023/09/11 09:16:46;;;;;;;33.75;8.50;;;;;;;25.32;54.65;100794.13;5049502;28;20059;-40
2023/09/11 09:19:14;;;;;;;27.13;7.20;;;;;;;25.24;54.71;100784.09;5046737;28;20503;-39
2023/09/11 09:22:06;;;;;;;18.00;7.30;;;;;;;25.36;54.16;100792.94;5030198;28;20052;-40
2023/09/11 09:24:34;;;;;;;16.58;6.90;;;;;;;25.83;52.87;100811.16;5042779;28;20045;-40
2023/09/11 09:27:05;;;;;;;14.18;6.60;;;;;;;25.54;53.71;100863.34;5054750;28;20063;-40
2023/09/11 09:29:37;;;;;;;18.25;6.68;;;;;;;25.57;53.84;100885.09;5048324;28;20063;-39
2023/09/11 09:32:07;;;;;;;11.52;6.32;;;;;;;25.98;53.20;100886.03;5045365;28;20060;-39
2023/09/11 09:34:36;;;;;;;22.17;6.90;;;;;;;26.33;52.77;100882.97;5051354;28;20049;-40
2023/09/11 09:37:04;;;;;;;14.33;6.77;;;;;;;26.71;52.27;100883.88;5050890;28;20053;-40
2023/09/11 09:39:33;;;;;;;21.38;6.80;;;;;;;26.98;50.83;100887.63;5048106;28;20294;-39
2023/09/11 09:42:02;;;;;;;17.27;6.77;;;;;;;26.94;50.97;100888.88;5047940;28;20451;-39
2023/09/11 09:44:36;;;;;;;19.13;6.07;;;;;;;26.90;51.36;100885.31;5041923;28;20049;-39
2023/09/11 09:47:08;;;;;;;15.60;6.47;;;;;;;27.10;51.83;100883.44;5049370;28;20739;-39
2023/09/11 09:49:55;;;;;;;15.77;6.25;;;;;;;27.19;51.22;100876.06;5052791;28;20064;-39
2023/09/11 09:52:26;;;;;;;16.75;6.75;;;;;;;27.12;51.66;100873.34;5056284;28;20392;-40
2023/09/11 09:54:59;;;;;;;18.13;6.07;;;;;;;27.25;52.37;100879.25;5030688;28;20100;-39
2023/09/11 09:57:27;;;;;;;14.13;6.03;;;;;;;27.26;51.93;100866.69;5047548;28;20048;-39
2023/09/11 09:59:57;;;;;;;16.75;6.10;;;;;;;27.48;51.32;100856.72;5049902;28;20060;-44
2023/09/11 10:02:26;;;;;;;14.63;6.55;;;;;;;26.98;53.13;100852.88;5047989;28;20701;-39
2023/09/11 10:04:54;;;;;;;16.95;6.25;;;;;;;26.27;55.74;100876.19;5048924;28;20587;-43
2023/09/11 10:07:39;;;;;;;17.58;7.97;;;;;;;25.67;57.90;100878.56;5048390;28;20053;-46
2023/09/11 10:10:26;;;;;;;13.52;6.18;;;;;;;25.03;59.24;100868.75;5044363;28;20051;-43
2023/09/11 10:13:00;;;;;;;15.93;6.88;;;;;;;25.81;57.97;100866.41;5046341;28;20048;-44
2023/09/11 10:15:29;;;;;;;17.17;6.32;;;;;;;26.09;56.76;100874.69;5051712;28;20052;-44
2023/09/11 10:17:57;;;;;;;15.80;5.88;;;;;;;25.68;56.88;100865.28;5029725;28;20490;-43
2023/09/11 10:20:26;;;;;;;15.20;5.63;;;;;;;26.02;57.42;100841.66;5047525;28;20056;-42
2023/09/11 10:22:55;;;;;;;13.65;5.85;;;;;;;26.46;55.63;100846.56;5043502;28;20060;-45
2023/09/11 10:25:23;;;;;;;16.77;6.32;;;;;;;27.11;54.13;100837.00;5044695;28;20044;-43
2023/09/11 10:27:56;;;;;;;13.13;6.82;;;;;;;27.26;53.91;100829.91;5057548;28;20057;-43
2023/09/11 10:30:25;;;;;;;14.02;6.20;;;;;;;25.48;57.50;100850.88;5047513;28;20063;-41
2023/09/11 10:33:10;;;;;;;12.10;7.22;;;;;;;25.16;60.44;100841.72;5032149;28;20060;-45
2023/09/11 10:35:39;;;;;;;16.33;7.28;;;;;;;26.25;58.65;100821.31;5041317;28;20666;-42
2023/09/11 10:38:07;;;;;;;;;;;;;;;26.31;55.74;100825.31;5043744;28;20041;-44
2023/09/11 10:40:36;;;;;;;12.95;7.95;;;;;;;26.36;57.62;100833.34;5047641;28;19924;-44
2023/09/11 10:43:04;;;;;;;10.83;6.40;;;;;;;26.53;56.93;100836.00;5046568;28;20057;-42
2023/09/11 10:45:32;;;;;;;10.60;5.35;;;;;;;26.64;55.36;100836.66;5042937;28;20053;-44
2023/09/11 10:48:01;;;;;;;16.20;5.60;;;;;;;26.39;55.15;100850.25;5041877;28;20045;-45
2023/09/11 10:50:29;;;;;;;9.75;5.78;;;;;;;26.22;56.64;100848.38;5046804;28;20052;-44
2023/09/11 10:52:57;;;;;;;10.88;5.65;;;;;;;26.45;54.73;100856.22;5052632;28;20057;-41
2023/09/11 10:55:24;;;;;;;15.98;6.80;;;;;;;26.71;54.06;100857.66;5040264;28;20049;-44
2023/09/11 10:57:53;;;;;;;12.52;6.15;;;;;;;26.52;54.86;100845.69;5044320;28;20072;-45
2023/09/11 11:00:21;;;;;;;25.98;6.53;;;;;;;26.48;55.08;100859.03;5036923;28;20589;-43
2023/09/11 11:02:50;;;;;;;23.25;6.07;;;;;;;25.92;57.60;100858.66;5053004;28;20491;-45
2023/09/11 11:05:19;;;;;;;24.38;8.88;;;;;;;26.73;55.59;100843.91;5044493;28;20053;-43
2023/09/11 11:07:50;;;;;;;13.25;6.43;;;;;;;27.53;54.18;100831.59;5040523;28;20044;-44
2023/09/11 11:10:19;;;;;;;21.55;6.97;;;;;;;27.22;58.54;100818.66;5040479;28;20052;-46
2023/09/11 11:12:47;;;;;;;14.98;5.75;;;;;;;26.57;61.23;100810.53;5047111;28;20048;-44
2023/09/11 11:15:24;;;;;;;18.38;6.20;;;;;;;26.57;56.06;100802.84;5048761;28;20045;-45
2023/09/11 11:18:12;;;;;;;14.68;4.55;;;;;;;26.75;56.75;100802.66;5060857;28;20063;-45
2023/09/11 11:20:59;;;;;;;10.13;4.75;;;;;;;25.93;57.22;100792.50;5050968;28;20087;-41
2023/09/11 11:23:30;;;;;;;10.68;4.75;;;;;;;26.13;56.87;100785.94;5047420;28;20045;-42
2023/09/11 11:26:04;;;;;;;11.02;5.43;;;;;;;25.43;59.47;100783.63;5043526;28;20052;-42